Greenville, SC (29615)

11:24 PM EDT on September 21, 2014 (GMT -0400)
Merrifield Park Subdivision | Change Station
CLOSE
Current Station
Personal Weather Station
Location: Greenville, SC
Elevation: 1010 ft
Nearby Weather Stations

Elev 1010 ft 34.87 °N, 82.32 °W | Updated 4 seconds ago

Overcast
Overcast
75.0 °F
Feels Like 76 °F
N
5.0
Wind Variable Wind from SSW
Gusts 7.0 mph

Today
High -- | Low -- °F
--% Chance of Precip.
Yesterday
High -- | Low -- °F
Precip. -- in
7:16 AM 7:27 PM
Waning Crescent, 4% visible
Pressure 29.92 in
Visibility 10.0 miles
Clouds Scattered Clouds 6000 ft
Overcast 8500 ft
Heat Index 76 °F
Dew Point 68 °F
Humidity 79%
Rainfall 0.00 in
Snow Depth Not available.
UV 0 out of 12
Pollen 7.30 out of 12
Ozone Good
PM2.5 Moderate
Flu Activity Not available.
METAR KGMU 220253Z AUTO 29003KT 10SM SCT060 OVC085 24/18 A2995 RMK AO2 SLP131 T02440183 51012

More Conditions Fewer Conditions

Pressure 29.92 in
Visibility 10.0 miles
Clouds Scattered Clouds 6000 ft
Overcast 8500 ft
Heat Index 76 °F
Dew Point 68 °F
Humidity 79%
Rainfall 0.00 in
Snow Depth Not available.
UV 0 out of 12
Pollen 7.30 out of 12
Ozone Good
PM2.5 Moderate
Flu Activity Not available.
METAR KGMU 220253Z AUTO 29003KT 10SM SCT060 OVC085 24/18 A2995 RMK AO2 SLP131 T02440183 51012

More Conditions Fewer Conditions

10-Day Weather Forecast

Almanac

Astronomy

Sep. 21, 2014 Rise Set
Actual Time 7:16 AM EDT 7:27 PM EDT
Civil Twilight 6:51 AM EDT 7:52 PM EDT
Nautical Twilight 6:21 AM EDT 8:22 PM EDT
Astronomical Twilight 5:51 AM EDT 8:51 PM EDT
Moon 4:53 AM EDT (9/21) 5:59 PM EDT (9/21)
Length of Visible Light 13h 01m
Length of Day
12h 10m
Tomorrow will be 2m 11s shorter.
Waning Crescent, 4% of the Moon is Illuminated
Today
Waning Crescent
Sep 24
New
Oct 1
First Quarter
Oct 8
Full
Oct 15
Last Quarter

Today's Extremes

State Highs State Lows

Community

WunderPhotos

Upload Photos

1,755,382 photos uploaded!

WunderBlogs® & News

Nearby

Air Quality

  Air Quality AQ Index Pollutant
Yesterday Good
OZONE
Yesterday Good
PM2.5
Current Moderate
PM2.5
Current Good
OZONE
Sunday Good
OZONE
Monday Good
OZONE

Snow Depth

Station Depth Elevation
No new snow has been reported.

Earthquake Activity

City Distance Mag. Time & Date
New Ellenton, South Carolina 103 miles 2.6 4:38 PM EDT
2014-09-19
Minimum magnitude displayed is 2.5.

Coastal Water Temperatures

Place Temperature
No Stations Reporting

Nearby Weather Stations